Weather at Yes Bay Lodge Seaplane Base

Public forecast

Using degrees Fahrenheit for public forecast. Weather courtesy of forecast.io.

Closest aviation weather report (METAR) to Yes Bay Lodge Seaplane Base

Closest report is Ketchikan International Airport, 33.8 nm (62.6 km) S. Retrieved 2020/09/24 23:53 UTC (16 minutes ago):

PAKT 242353Z 13015G21KT 10SM SCT020 BKN030 OVC040 13/12 A2940

Closest aviation forecast (TAF) to Yes Bay Lodge Seaplane Base

Closest forecast is Ketchikan International Airport, 33.8 nm (62.6 km) S. Retrieved 2020-09-25 00:34 UTC (0 seconds ago):

TAF PAKT 242332Z 2500/2524 14015KT 6SM -SHRA SCT020 OVC030 WS020/21030KT TEMPO 2500/2502 14015G25KT 4SM -SHRA BR BKN011 OVC020 FM250200 15010KT 6SM -SHRA BR BKN025 OVC035 AMD LTD TO CLD VIS AND WIND 2506/2515